createdAt,value
2018-12-11T00:04:13.935Z,4.63
2018-12-11T00:09:16.996Z,4.67
2018-12-11T00:14:20.076Z,4.97
2018-12-11T00:19:23.180Z,5.10
2018-12-11T00:24:26.292Z,4.40
2018-12-11T00:29:29.447Z,4.67
2018-12-11T00:34:32.530Z,5.13
2018-12-11T00:39:35.682Z,4.60
2018-12-11T00:44:38.831Z,4.73
2018-12-11T00:49:41.895Z,5.17
2018-12-11T00:54:45.053Z,4.83
2018-12-11T00:59:48.160Z,4.60
2018-12-11T01:04:51.243Z,5.27
2018-12-11T01:09:54.399Z,5.80
2018-12-11T01:15:15.241Z,6.03
2018-12-11T01:20:19.343Z,5.50
2018-12-11T01:25:22.465Z,5.20
2018-12-11T01:30:25.576Z,5.57
2018-12-11T01:35:28.653Z,5.20
2018-12-11T01:40:31.719Z,5.30
2018-12-11T01:45:34.879Z,5.37
2018-12-11T01:50:37.952Z,5.20
2018-12-11T01:55:41.028Z,5.87
2018-12-11T02:00:44.168Z,5.90
2018-12-11T02:05:47.248Z,5.93
2018-12-11T02:10:50.359Z,6.60
2018-12-11T02:15:53.724Z,6.13
2018-12-11T02:20:56.784Z,6.00
2018-12-11T02:25:59.858Z,5.53
2018-12-11T02:31:02.978Z,6.40
2018-12-11T02:36:06.179Z,5.63
2018-12-11T02:41:09.287Z,5.22
2018-12-11T02:46:12.407Z,6.00
2018-12-11T02:51:15.561Z,6.10
2018-12-11T02:56:18.627Z,5.13
2018-12-11T03:01:21.797Z,5.83
2018-12-11T03:06:24.949Z,6.07
2018-12-11T03:11:28.054Z,6.37
2018-12-11T03:16:31.292Z,6.10
2018-12-11T03:21:34.843Z,5.93
2018-12-11T03:26:38.101Z,6.17
2018-12-11T03:31:41.215Z,6.30
2018-12-11T03:36:44.392Z,6.47
2018-12-11T03:41:47.493Z,6.60
2018-12-11T03:46:50.644Z,6.03
2018-12-11T03:51:53.828Z,6.53
2018-12-11T03:56:56.977Z,7.07
2018-12-11T04:02:00.194Z,6.73
2018-12-11T04:07:03.380Z,6.93
2018-12-11T04:12:06.863Z,6.30
2018-12-11T04:17:09.957Z,4.37
2018-12-11T04:22:13.098Z,4.87
2018-12-11T04:27:16.171Z,5.30
2018-12-11T04:32:19.236Z,5.23
2018-12-11T04:37:22.353Z,5.57
2018-12-11T04:42:25.434Z,5.67
2018-12-11T04:47:28.591Z,5.92
2018-12-11T04:52:31.655Z,5.27
2018-12-11T04:57:34.764Z,5.07
2018-12-11T05:02:37.836Z,5.40
2018-12-11T05:07:40.914Z,4.90
2018-12-11T05:12:44.103Z,5.50
2018-12-11T05:17:47.166Z,6.00
2018-12-11T05:22:50.235Z,6.17
2018-12-11T05:27:53.401Z,5.53
2018-12-11T05:32:56.477Z,6.10
2018-12-11T05:37:59.557Z,9.40
2018-12-11T05:43:02.628Z,6.78
2018-12-11T05:48:05.702Z,6.28
2018-12-11T05:53:08.886Z,7.45
2018-12-11T05:58:11.955Z,6.47
2018-12-11T06:03:15.021Z,6.47
2018-12-11T06:08:18.110Z,8.00
2018-12-11T06:13:21.196Z,8.48
2018-12-11T06:18:24.275Z,8.33
2018-12-11T06:23:27.888Z,7.20
2018-12-11T06:28:30.974Z,7.27
2018-12-11T06:33:34.087Z,6.70
2018-12-11T06:38:37.165Z,6.20
2018-12-11T06:43:40.245Z,6.27
2018-12-11T06:48:43.356Z,6.07
2018-12-11T06:53:46.436Z,5.87
2018-12-11T06:58:49.536Z,6.90
2018-12-11T07:03:52.647Z,6.40
2018-12-11T07:08:55.751Z,6.40
2018-12-11T07:13:58.836Z,6.97
2018-12-11T07:19:01.939Z,7.37
2018-12-11T07:24:05.433Z,8.40
2018-12-11T07:29:08.499Z,8.53
2018-12-11T07:34:11.590Z,8.17
2018-12-11T07:39:14.683Z,7.70
2018-12-11T07:44:17.769Z,7.53
2018-12-11T07:49:20.836Z,7.43
2018-12-11T07:54:23.932Z,7.50
2018-12-11T07:59:27.036Z,7.70
2018-12-11T08:04:30.147Z,6.93
2018-12-11T08:09:33.220Z,7.03
2018-12-11T08:14:36.310Z,6.80
2018-12-11T08:19:39.416Z,6.03
2018-12-11T08:24:42.482Z,6.37
2018-12-11T08:29:45.640Z,6.53
2018-12-11T08:34:48.708Z,6.63
2018-12-11T08:39:51.830Z,6.67
2018-12-11T08:44:54.902Z,5.90
2018-12-11T08:49:57.981Z,6.47
2018-12-11T08:55:01.070Z,6.80
2018-12-11T09:00:07.592Z,6.27
2018-12-11T09:05:10.687Z,6.87
2018-12-11T09:10:13.845Z,6.70
2018-12-11T09:15:16.995Z,6.20
2018-12-11T09:20:20.075Z,6.47
2018-12-11T09:25:23.180Z,6.50
2018-12-11T09:30:26.273Z,6.60
2018-12-11T09:35:29.343Z,6.60
2018-12-11T09:40:32.560Z,6.50
2018-12-11T09:45:35.636Z,5.50
2018-12-11T09:50:38.713Z,6.60
2018-12-11T09:55:41.811Z,7.37
2018-12-11T10:00:44.938Z,5.87
2018-12-11T10:05:48.184Z,5.73
2018-12-11T10:10:51.267Z,5.47
2018-12-11T10:15:54.356Z,4.97
2018-12-11T10:20:57.520Z,5.40
2018-12-11T10:26:00.586Z,5.93
2018-12-11T10:31:03.723Z,6.53
2018-12-11T10:36:06.897Z,6.20
2018-12-11T10:41:09.981Z,6.97
2018-12-11T10:46:13.076Z,6.77
2018-12-11T10:51:16.167Z,7.47
2018-12-11T10:56:19.284Z,7.33
2018-12-11T11:01:24.426Z,7.13
2018-12-11T11:06:27.514Z,7.10
2018-12-11T11:11:30.588Z,6.97
2018-12-11T11:16:33.676Z,7.87
2018-12-11T11:21:36.762Z,7.67
2018-12-11T11:26:39.829Z,8.73
2018-12-11T11:31:42.949Z,7.80
2018-12-11T11:36:46.070Z,7.43
2018-12-11T11:41:49.153Z,7.50
2018-12-11T11:46:52.234Z,6.87
2018-12-11T11:51:55.352Z,7.33
2018-12-11T11:56:58.431Z,7.43
2018-12-11T12:02:01.540Z,6.97
2018-12-11T12:07:04.691Z,6.83
2018-12-11T12:12:07.762Z,6.63
2018-12-11T12:17:10.827Z,7.03
2018-12-11T12:22:13.898Z,6.40
2018-12-11T12:27:16.971Z,6.40
2018-12-11T12:32:20.048Z,6.20
2018-12-11T12:37:23.131Z,6.43
2018-12-11T12:42:26.230Z,5.20
2018-12-11T12:47:29.295Z,5.87
2018-12-11T12:52:32.376Z,6.30
2018-12-11T12:57:35.451Z,5.53
2018-12-11T13:02:38.551Z,5.23
2018-12-11T13:07:41.642Z,5.23
2018-12-11T13:12:44.764Z,4.57
2018-12-11T13:17:47.832Z,4.80
2018-12-11T13:22:50.919Z,5.37
2018-12-11T13:27:54.030Z,4.70
2018-12-11T13:32:57.149Z,4.87
2018-12-11T13:38:00.227Z,4.73
2018-12-11T13:43:03.562Z,5.62
2018-12-11T13:48:06.692Z,4.43
2018-12-11T13:53:09.854Z,4.20
2018-12-11T13:58:12.932Z,3.80
2018-12-11T14:03:15.990Z,3.33
2018-12-11T14:08:19.087Z,3.60
2018-12-11T14:13:22.178Z,3.60
2018-12-11T14:18:25.266Z,3.90
2018-12-11T14:23:28.403Z,3.90
2018-12-11T14:28:32.039Z,4.60
2018-12-11T14:33:35.197Z,4.87
2018-12-11T14:38:38.303Z,4.43
2018-12-11T14:43:41.379Z,4.40
2018-12-11T14:48:44.459Z,3.83
2018-12-11T14:53:47.563Z,3.60
2018-12-11T14:58:50.647Z,2.90
2018-12-11T15:03:53.727Z,3.23
2018-12-11T15:08:58.790Z,3.00
2018-12-11T15:14:01.874Z,3.20
2018-12-11T15:19:05.031Z,3.93
2018-12-11T15:24:08.105Z,3.10
2018-12-11T15:29:11.183Z,3.53
2018-12-11T15:34:14.445Z,3.43
2018-12-11T15:39:17.528Z,4.50
2018-12-11T15:44:20.627Z,5.80
2018-12-11T15:49:23.767Z,6.40
2018-12-11T15:54:26.843Z,6.43
2018-12-11T15:59:29.907Z,6.07
2018-12-11T16:04:33.011Z,5.70
2018-12-11T16:09:36.507Z,6.10
2018-12-11T16:14:39.613Z,5.13
2018-12-11T16:19:42.691Z,5.70
2018-12-11T16:24:46.502Z,6.57
2018-12-11T16:29:49.829Z,6.70
2018-12-11T16:34:52.891Z,6.17
2018-12-11T16:39:55.953Z,6.13
2018-12-11T16:44:59.016Z,5.80
2018-12-11T16:50:02.136Z,6.08
2018-12-11T16:55:06.111Z,6.40
2018-12-11T17:00:09.756Z,6.97
2018-12-11T17:05:12.943Z,7.93
2018-12-11T17:10:16.071Z,7.00
2018-12-11T17:15:19.567Z,7.08
2018-12-11T17:20:22.911Z,6.90
2018-12-11T17:25:25.983Z,6.30
2018-12-11T17:30:29.252Z,6.47
2018-12-11T17:35:32.440Z,7.57
2018-12-11T17:40:35.515Z,7.53
2018-12-11T17:45:38.579Z,7.53
2018-12-11T17:50:42.160Z,7.90
2018-12-11T17:55:45.227Z,7.67
2018-12-11T18:00:48.288Z,8.40
2018-12-11T18:05:51.467Z,8.10
2018-12-11T18:10:54.615Z,8.37
2018-12-11T18:15:57.692Z,8.73
2018-12-11T18:21:00.791Z,9.33
2018-12-11T18:26:03.917Z,9.97
2018-12-11T18:31:07.024Z,9.43
2018-12-11T18:36:10.312Z,8.37
2018-12-11T18:41:13.372Z,9.43
2018-12-11T18:46:16.488Z,8.37
2018-12-11T18:51:19.599Z,7.87
2018-12-11T18:56:22.739Z,10.20
2018-12-11T19:01:25.931Z,9.63
2018-12-11T19:06:29.043Z,10.17
2018-12-11T19:11:32.147Z,9.80
2018-12-11T19:16:36.918Z,10.37
2018-12-11T19:21:41.104Z,10.27
2018-12-11T19:26:44.237Z,9.73
2018-12-11T19:31:47.381Z,9.83
2018-12-11T19:36:50.679Z,10.37
2018-12-11T19:41:54.046Z,11.23
2018-12-11T19:46:57.122Z,10.73
2018-12-11T19:52:00.186Z,10.50
2018-12-11T19:57:03.256Z,13.03
2018-12-11T20:02:06.476Z,13.20
2018-12-11T20:07:09.576Z,12.00
2018-12-11T20:12:12.653Z,11.83
2018-12-11T20:17:28.023Z,12.47
2018-12-11T20:22:32.375Z,15.57
2018-12-11T20:27:35.439Z,16.60
2018-12-11T20:32:38.512Z,20.73
2018-12-11T20:37:41.584Z,18.20
2018-12-11T20:42:44.686Z,14.23
2018-12-11T20:47:47.759Z,12.70
2018-12-11T20:52:50.838Z,12.70
2018-12-11T20:57:53.944Z,11.33
2018-12-11T21:02:57.011Z,11.43
2018-12-11T21:08:00.117Z,11.20
2018-12-11T21:13:03.213Z,10.73
2018-12-11T21:18:07.087Z,11.13
2018-12-11T21:23:10.166Z,11.47
2018-12-11T21:28:13.265Z,13.00
2018-12-11T21:33:16.322Z,13.77
2018-12-11T21:38:19.410Z,12.97
2018-12-11T21:43:22.482Z,13.67
2018-12-11T21:48:25.551Z,13.80
2018-12-11T21:53:28.616Z,16.17
2018-12-11T21:58:31.685Z,15.47
2018-12-11T22:03:34.829Z,19.13
2018-12-11T22:08:37.904Z,17.60
2018-12-11T22:13:41.064Z,15.97
2018-12-11T22:18:44.120Z,17.37
2018-12-11T22:23:47.195Z,18.23
2018-12-11T22:28:50.263Z,17.13
2018-12-11T22:33:53.364Z,16.33
2018-12-11T22:38:56.454Z,15.73
2018-12-11T22:43:59.516Z,15.80
2018-12-11T22:49:02.607Z,16.07
2018-12-11T22:54:05.710Z,16.23
2018-12-11T22:59:08.783Z,17.92
2018-12-11T23:04:11.927Z,17.40
2018-12-11T23:09:15.014Z,20.00
2018-12-11T23:14:18.128Z,20.73
2018-12-11T23:19:21.239Z,20.10
2018-12-11T23:24:24.311Z,20.57
2018-12-11T23:29:27.377Z,19.90
2018-12-11T23:34:30.459Z,19.20
2018-12-11T23:39:33.539Z,18.73
2018-12-11T23:44:36.633Z,18.90
2018-12-11T23:49:39.712Z,19.97
2018-12-11T23:54:42.775Z,20.27
2018-12-11T23:59:45.945Z,20.23
